createdAt,value
2019-03-08T00:00:01.211Z,0.5
2019-03-08T00:15:01.308Z,0.4
2019-03-08T00:20:01.386Z,0.3
2019-03-08T00:30:01.311Z,0.2
2019-03-08T00:45:01.353Z,0.2
2019-03-08T00:50:01.201Z,0.3
2019-03-08T01:00:01.583Z,0.3
2019-03-08T01:15:01.366Z,0.3
2019-03-08T01:30:01.365Z,0.2
2019-03-08T01:45:01.391Z,0.2
2019-03-08T01:55:01.306Z,0.1
2019-03-08T02:00:06.237Z,0.1
2019-03-08T02:15:01.524Z,0.1
2019-03-08T02:20:01.266Z,0.1
2019-03-08T02:30:01.397Z,0.2
2019-03-08T02:45:01.381Z,0.2
2019-03-08T02:55:01.347Z,0.2
2019-03-08T03:00:01.277Z,0.3
2019-03-08T03:05:01.400Z,0.3
2019-03-08T03:15:01.409Z,0.3
2019-03-08T03:30:01.404Z,0.3
2019-03-08T03:45:02.427Z,0.4
2019-03-08T04:00:01.408Z,0.4
2019-03-08T04:15:01.399Z,0.4
2019-03-08T04:25:01.331Z,0.4
2019-03-08T04:30:01.324Z,0.4
2019-03-08T04:35:01.367Z,0.4
2019-03-08T04:45:01.741Z,0.4
2019-03-08T04:50:01.267Z,0.4
2019-03-08T05:00:01.453Z,0.3
2019-03-08T05:10:01.450Z,0.2
2019-03-08T05:15:01.438Z,0.2
2019-03-08T05:30:01.366Z,0.2
2019-03-08T05:40:01.414Z,0.2
2019-03-08T05:45:01.453Z,0.2
2019-03-08T06:00:01.470Z,0.2
2019-03-08T06:10:01.430Z,0.1
2019-03-08T06:15:01.356Z,0.1
2019-03-08T06:30:01.375Z,0.1
2019-03-08T06:40:01.346Z,0.2
2019-03-08T06:45:01.372Z,0.2
2019-03-08T07:00:06.334Z,0.3
2019-03-08T07:05:01.331Z,0.6
2019-03-08T07:15:02.110Z,1.1
2019-03-08T07:20:01.275Z,1.2
2019-03-08T07:25:01.292Z,2.3
2019-03-08T07:30:01.472Z,2.2
2019-03-08T07:35:01.424Z,2.7
2019-03-08T07:40:01.263Z,2.8
2019-03-08T07:45:01.302Z,3.1
2019-03-08T07:55:01.247Z,3.7
2019-03-08T08:00:01.310Z,3.3
2019-03-08T08:05:01.448Z,3.6
2019-03-08T08:10:01.351Z,3.5
2019-03-08T08:15:01.353Z,3.6
2019-03-08T08:20:01.572Z,3.4
2019-03-08T08:25:01.482Z,3.6
2019-03-08T08:30:01.284Z,3.6
2019-03-08T08:35:01.610Z,4.2
2019-03-08T08:40:01.336Z,4.1
2019-03-08T08:45:01.388Z,4.0
2019-03-08T08:50:02.342Z,4.5
2019-03-08T08:55:01.393Z,4.4
2019-03-08T09:00:01.280Z,4.2
2019-03-08T09:05:06.387Z,3.6
2019-03-08T09:10:01.290Z,3.8
2019-03-08T09:15:01.624Z,3.6
2019-03-08T09:20:01.362Z,3.6
2019-03-08T09:25:01.433Z,4.1
2019-03-08T09:30:01.292Z,3.9
2019-03-08T09:35:01.371Z,4.0
2019-03-08T09:40:01.278Z,3.7
2019-03-08T10:00:01.050Z,4.0
2019-03-08T10:05:00.600Z,4.1
2019-03-08T10:15:00.632Z,4.9
2019-03-08T10:25:00.830Z,5.0
2019-03-08T10:30:00.483Z,4.9
2019-03-08T10:35:00.852Z,4.8
2019-03-08T10:40:00.492Z,4.2
2019-03-08T10:45:00.661Z,3.8
2019-03-08T10:50:00.573Z,3.4
2019-03-08T10:55:01.036Z,3.4
2019-03-08T11:00:00.494Z,3.4
2019-03-08T11:05:00.606Z,3.9
2019-03-08T11:10:00.569Z,4.5
2019-03-08T11:15:00.894Z,4.8
2019-03-08T11:20:00.520Z,4.8
2019-03-08T11:25:08.788Z,4.6
2019-03-08T11:30:00.692Z,4.6
2019-03-08T11:35:00.807Z,4.1
2019-03-08T11:40:04.137Z,4.0
2019-03-08T11:45:00.603Z,3.7
2019-03-08T11:50:00.517Z,4.0
2019-03-08T12:00:00.624Z,4.1
2019-03-08T12:15:00.614Z,3.8
2019-03-08T12:20:00.550Z,3.4
2019-03-08T12:25:01.835Z,3.6
2019-03-08T12:30:00.518Z,3.6
2019-03-08T12:35:00.784Z,3.5
2019-03-08T12:40:00.517Z,3.2
2019-03-08T12:45:00.581Z,3.2
2019-03-08T12:50:00.545Z,2.5
2019-03-08T13:00:00.892Z,2.7
2019-03-08T13:05:00.669Z,3.0
2019-03-08T13:10:00.566Z,2.9
2019-03-08T13:15:00.601Z,2.9
2019-03-08T13:20:00.515Z,2.3
2019-03-08T13:25:00.598Z,2.5
2019-03-08T13:30:00.527Z,2.0
2019-03-08T13:35:00.676Z,1.9
2019-03-08T13:40:00.826Z,2.1
2019-03-08T13:45:00.700Z,2.4
2019-03-08T13:50:00.515Z,2.2
2019-03-08T13:55:00.663Z,2.2
2019-03-08T14:00:00.537Z,2.4
2019-03-08T14:05:00.562Z,2.1
2019-03-08T14:10:00.550Z,2.0
2019-03-08T14:15:00.639Z,2.7
2019-03-08T14:20:00.806Z,3.0
2019-03-08T14:25:00.799Z,3.1
2019-03-08T14:30:00.991Z,3.5
2019-03-08T14:35:00.654Z,3.5
2019-03-08T14:40:01.189Z,3.4
2019-03-08T14:45:07.810Z,3.2
2019-03-08T14:50:00.745Z,2.7
2019-03-08T14:55:01.318Z,2.4
2019-03-08T15:00:00.660Z,2.5
2019-03-08T15:05:11.317Z,2.3
2019-03-08T15:10:06.067Z,2.1
2019-03-08T15:15:00.590Z,2.5
2019-03-08T15:20:00.804Z,2.6
2019-03-08T15:25:00.656Z,2.9
2019-03-08T15:30:00.530Z,3.0
2019-03-08T15:35:00.610Z,3.5
2019-03-08T15:40:00.532Z,3.6
2019-03-08T15:45:05.676Z,3.4
2019-03-08T15:50:08.241Z,3.4
2019-03-08T15:55:00.672Z,3.4
2019-03-08T16:00:00.926Z,3.0
2019-03-08T16:05:00.715Z,2.8
2019-03-08T16:10:00.575Z,2.8
2019-03-08T16:15:00.609Z,2.5
2019-03-08T16:20:03.966Z,2.0
2019-03-08T16:25:00.922Z,2.2
2019-03-08T16:30:10.612Z,2.0
2019-03-08T16:35:00.607Z,2.0
2019-03-08T16:50:00.867Z,2.9
2019-03-08T17:10:01.196Z,1.5
2019-03-08T17:15:01.252Z,2.3
2019-03-08T17:20:01.127Z,2.1
2019-03-08T17:25:01.213Z,2.5
2019-03-08T17:30:01.147Z,2.3
2019-03-08T17:35:01.192Z,2.4
2019-03-08T17:40:01.138Z,2.1
2019-03-08T17:45:01.255Z,2.2
2019-03-08T17:50:01.203Z,1.9
2019-03-08T17:55:01.206Z,2.4
2019-03-08T18:00:01.134Z,2.4
2019-03-08T18:05:01.264Z,2.6
2019-03-08T18:10:01.152Z,2.6
2019-03-08T18:15:01.239Z,2.6
2019-03-08T18:20:01.184Z,2.6
2019-03-08T18:25:01.496Z,2.7
2019-03-08T18:30:02.236Z,2.8
2019-03-08T18:35:01.222Z,3.0
2019-03-08T18:45:01.399Z,3.5
2019-03-08T18:50:01.177Z,4.0
2019-03-08T18:55:01.180Z,4.3
2019-03-08T19:00:01.202Z,3.9
2019-03-08T19:05:01.180Z,3.9
2019-03-08T19:10:01.187Z,3.8
2019-03-08T19:15:01.313Z,3.5
2019-03-08T19:20:01.175Z,3.0
2019-03-08T19:25:01.301Z,3.2
2019-03-08T19:30:01.188Z,3.0
2019-03-08T19:35:01.269Z,2.9
2019-03-08T19:45:01.284Z,2.5
2019-03-08T19:50:01.154Z,2.4
2019-03-08T19:55:01.243Z,2.2
2019-03-08T20:00:01.254Z,2.0
2019-03-08T20:05:01.248Z,1.9
2019-03-08T20:10:01.181Z,2.1
2019-03-08T20:15:01.329Z,2.0
2019-03-08T20:20:01.356Z,1.8
2019-03-08T20:25:01.266Z,2.0
2019-03-08T20:30:01.210Z,1.9
2019-03-08T20:35:01.247Z,1.9
2019-03-08T20:40:01.191Z,1.6
2019-03-08T20:45:01.326Z,1.8
2019-03-08T20:55:01.267Z,1.5
2019-03-08T21:00:01.392Z,1.3
2019-03-08T21:05:01.239Z,1.3
2019-03-08T21:10:01.170Z,1.0
2019-03-08T21:15:01.231Z,1.0
2019-03-08T21:20:01.167Z,1.1
2019-03-08T21:25:02.408Z,1.1
2019-03-08T21:30:01.183Z,1.0
2019-03-08T21:35:01.260Z,1.1
2019-03-08T21:45:01.246Z,0.9
2019-03-08T21:50:01.405Z,0.8
2019-03-08T21:55:01.302Z,0.8
2019-03-08T22:00:01.238Z,0.9
2019-03-08T22:05:01.276Z,0.9
2019-03-08T22:10:02.281Z,0.7
2019-03-08T22:15:01.381Z,0.7
2019-03-08T22:20:01.188Z,0.7
2019-03-08T22:25:01.326Z,0.6
2019-03-08T22:30:01.283Z,0.6
2019-03-08T22:45:01.282Z,0.5
2019-03-08T23:00:01.295Z,0.7
2019-03-08T23:10:01.266Z,1.1
2019-03-08T23:15:01.280Z,1.1
2019-03-08T23:20:01.204Z,1.3
2019-03-08T23:25:01.255Z,1.3
2019-03-08T23:30:01.242Z,1.5
2019-03-08T23:35:06.396Z,1.6
2019-03-08T23:40:01.407Z,1.5
2019-03-08T23:45:01.214Z,1.5
2019-03-08T23:55:01.289Z,1.4
